METAR stanice u blizini

 

LYBE - Beograd / Surčin, Srbija
Ažurirano: 16/11/2019 23:00
Vedro
Vedro
 Pravac vetra JI
Vetar: JI 22 km/h
Temperatura: 15°C
Tačka rose: 8°C
Vlažnost: 63%
Pritisak: 1016 hPa
Pregled: Vedro
Vidljivost: greater than 10 km
2019/11/16 22:00 LYBE 162200Z 13012KT CAVOK 15/08 Q1016 NOSIG
LYBT - Beograd / Batajnica, Srbija
Ažurirano: 16/11/2019 23:00
Vedro
Vedro
 Pravac vetra I
Vetar: I 20 km/h
Temperatura: 12°C
Tačka rose: 9°C
Vlažnost: 82%
Pritisak: 1016 hPa
Pregled: Vedro
Vidljivost: greater than 10 km
2019/11/16 22:00 LYBT 162200Z 09011KT CAVOK 12/09 Q1016 NOSIG
LYVR - Vršac, Srbija
Ažurirano: 16/11/2019 23:00
Vedro
Vedro
 Pravac vetra JI
Vetar: JI 39 km/h, Maks.: 74 km/h
Temperatura: 17°C
Tačka rose: 8°C
Vlažnost: 56%
Pritisak: 1017 hPa
Pregled: Vedro
Vidljivost: greater than 10 km
2019/11/16 22:00 LYVR 162200Z AUTO 13021G40KT CAVOK 17/08 Q1017
 
LYKV - Lađevci, Srbija
Ažurirano: 16/11/2019 23:00
Vedro
Vedro
 Pravac vetra JJI
Vetar: JJI 15 km/h
Temperatura: 14°C
Tačka rose: 10°C
Vlažnost: 77%
Pritisak: 1017 hPa
Pregled: Vedro
Vidljivost: greater than 10 km
2019/11/16 22:00 LYKV 162200Z 15008KT 120V180 CAVOK 14/10 Q1017 NOSIG
LYNI - Niš, Srbija
Ažurirano: 16/11/2019 23:00
Vedro
Vedro
 Pravac vetra I
Vetar: I 15 km/h
Temperatura: 14°C
Tačka rose: 8°C
Vlažnost: 67%
Pritisak: 1019 hPa
Pregled: Vedro
Vidljivost: greater than 10 km
2019/11/16 22:00 LYNI 162200Z 09008KT 050V120 CAVOK 14/08 Q1019 NOSIG
BKPR - Priština, Srbija
Ažurirano: 16/11/2019 23:00
Vedro
Vedro
 Pravac vetra JZ
Vetar: JZ 9 km/h
Temperatura: 10°C
Osećaj hladnoće: 9°C
Tačka rose: 7°C
Vlažnost: 82%
Pritisak: 1019 hPa
Pregled: Vedro
Vidljivost: greater than 10 km
2019/11/16 22:00 BKPR 162200Z 22005KT CAVOK 10/07 Q1019 NOSIG RMK 17010095
 
LHPP - Pecs / Pogany, Hungary
Ažurirano: 16/11/2019 18:15
NOT Current
Vedro
Vedro
 Pravac vetra S
Vetar: S 6 km/h
Temperatura: 12°C
Tačka rose: 9°C
Vlažnost: 82%
Pritisak: 1015 hPa
Pregled: Vedro
Vidljivost: greater than 10 km
2019/11/16 17:15 LHPP 161715Z 36003KT CAVOK 12/09 Q1015
LHUD - Szeged, Hungary
Ažurirano: 04/07/2019 01:45
NOT Current
Vedro
Vedro
 Pravac vetra S
Vetar: S 7 km/h
Temperatura: 18°C
Tačka rose: 13°C
Vlažnost: 73%
Pritisak: 1019 hPa
Pregled: Vedro
Vidljivost: greater than 10 km
2019/07/03 23:45 LHUD 032345Z 35004KT CAVOK 18/13 Q1019
LRTR - Timisoara, Romania
Ažurirano: 16/11/2019 23:00
Vedro
Vedro
 Pravac vetra IJI
Vetar: IJI 19 km/h
Temperatura: 10°C
Osećaj hladnoće: 7°C
Tačka rose: 8°C
Vlažnost: 88%
Pritisak: 1018 hPa
Pregled: Vedro
Vidljivost: greater than 10 km
2019/11/16 22:00 LRTR 162200Z 12010KT CAVOK 10/08 Q1018
 
LRCV - Craiova, Romania
Ažurirano: 16/11/2019 23:00
Light drizzle, Magla, Oblačno
Light drizzle, Magla, Oblačno
 Pravac vetra I
Vetar: I 17 km/h
Temperatura: 9°C
Osećaj hladnoće: 7°C
Tačka rose: 9°C
Vlažnost: 100%
Pritisak: 1021 hPa
Pregled: Light drizzle, Magla
Oblaci: Oblačno
Vidljivost: 1 km
Cloud details: Oblačno 61 m
2019/11/16 22:00 LRCV 162200Z 10009KT 0800 R27/1100N -DZ FG VV002 09/09 Q1021 R27/19//95
LBSF - Sofia, Bulgaria
Ažurirano: 16/11/2019 23:00
Partly Cloudy
Partly Cloudy
 Pravac vetra I
Vetar: I 7 km/h
Temperatura: 10°C
Osećaj hladnoće: 9°C
Tačka rose: 8°C
Vlažnost: 88%
Pritisak: 1022 hPa
Oblaci: Partly Cloudy
Vidljivost: 10 km
Cloud details: Partly Cloudy 914 m
2019/11/16 22:00 LBSF 162200Z 10004KT 9999 SCT030 10/08 Q1022 TEMPO 5000 BR
LWSK - Skoplje, Makedonija
Ažurirano: 16/11/2019 23:00
Few Clouds
Few Clouds
 Pravac vetra SI
Vetar: SI 6 km/h
Temperatura: 8°C
Tačka rose: 7°C
Vlažnost: 93%
Pritisak: 1021 hPa
Oblaci: Few Clouds
Vidljivost: 10 km
Cloud details: Few Clouds 610 m
2019/11/16 22:00 LWSK 162200Z 04003KT 9999 FEW020 08/07 Q1021 NOSIG
 
LYPG - Podgorica, Crna Gora
Ažurirano: 16/11/2019 23:00
Mostly Cloudy
Mostly Cloudy
 Pravac vetra calm
Vetar: Tišina
Temperatura: 14°C
Tačka rose: 12°C
Vlažnost: 88%
Pritisak: 1017 hPa
Oblaci: Mostly Cloudy
Vidljivost: 10 km
Cloud details: Partly Cloudy 1524 m
Mostly Cloudy 2438 m
2019/11/16 22:00 LYPG 162200Z 00000KT 9999 SCT050 BKN080 14/12 Q1017 NOSIG
LQSA - Sarajevo, Bosna i Hercegovina
Ažurirano: 16/11/2019 23:00
Vedro
Vedro
 Pravac vetra J
Vetar: J 15 km/h
Temperatura: 15°C
Tačka rose: 7°C
Vlažnost: 59%
Pritisak: 1015 hPa
Pregled: Vedro
Vidljivost: greater than 10 km
2019/11/16 22:00 LQSA 162200Z 17008KT 120V220 CAVOK 15/07 Q1015
LDOS - Osijek, Hrvatksa
Ažurirano: 16/11/2019 23:00
Vedro
Vedro
 Pravac vetra ISI
Vetar: ISI 9 km/h
Temperatura: 10°C
Osećaj hladnoće: 9°C
Tačka rose: 9°C
Vlažnost: 94%
Pritisak: 1014 hPa
Pregled: Vedro
Vidljivost: greater than 10 km
2019/11/16 22:00 LDOS 162200Z 07005KT CAVOK 10/09 Q1014